createdAt,value
2023-05-25T18:07:02.670Z,2.38
2023-05-25T18:09:30.561Z,2.38
2023-05-25T18:11:58.532Z,2.40
2023-05-25T18:14:26.686Z,2.10
2023-05-25T18:16:54.637Z,1.90
2023-05-25T18:19:22.555Z,2.30
2023-05-25T18:21:50.465Z,2.15
2023-05-25T18:24:19.724Z,2.20
2023-05-25T18:26:47.655Z,2.50
2023-05-25T18:29:16.367Z,2.60
2023-05-25T18:31:47.177Z,3.60
2023-05-25T18:34:15.947Z,4.70
2023-05-25T18:36:43.878Z,5.05
2023-05-25T18:39:12.156Z,6.30
2023-05-25T18:41:42.489Z,8.55
2023-05-25T18:44:10.445Z,6.82
2023-05-25T18:46:40.213Z,8.82
2023-05-25T18:49:08.152Z,8.70
2023-05-25T18:51:36.802Z,9.65
2023-05-25T18:54:04.930Z,10.10
2023-05-25T18:56:32.819Z,9.95
2023-05-25T18:59:02.090Z,11.00
2023-05-25T19:01:30.108Z,11.30
2023-05-25T19:03:58.685Z,11.32
2023-05-25T19:06:27.245Z,13.15
2023-05-25T19:08:55.371Z,12.07
2023-05-25T19:11:23.316Z,13.45
2023-05-25T19:13:51.212Z,16.10
2023-05-25T19:16:20.586Z,13.55
2023-05-25T19:18:48.557Z,13.65
2023-05-25T19:21:16.536Z,15.55
2023-05-25T19:23:44.949Z,16.48
2023-05-25T19:26:12.897Z,16.10
2023-05-25T19:28:40.784Z,13.32
2023-05-25T19:31:08.722Z,16.15
2023-05-25T19:33:38.093Z,19.35
2023-05-25T19:36:06.235Z,14.65
2023-05-25T19:38:41.285Z,15.95
2023-05-25T19:41:10.060Z,16.42
2023-05-25T19:43:38.358Z,21.08
2023-05-25T19:46:06.462Z,17.67
2023-05-25T19:48:34.399Z,19.25
2023-05-25T19:51:03.633Z,19.52
2023-05-25T19:53:31.586Z,18.70
2023-05-25T19:55:59.678Z,20.98
2023-05-25T19:58:27.587Z,18.95
2023-05-25T20:00:55.595Z,19.27
2023-05-25T20:03:23.728Z,20.55
2023-05-25T20:05:51.659Z,21.05
2023-05-25T20:08:20.951Z,19.50
2023-05-25T20:10:48.968Z,24.58
2023-05-25T20:13:17.091Z,21.45
2023-05-25T20:15:45.255Z,23.80
2023-05-25T20:18:13.311Z,20.35
2023-05-25T20:20:41.272Z,22.52
2023-05-25T20:23:09.701Z,20.65
2023-05-25T20:25:38.936Z,22.15
2023-05-25T20:28:06.876Z,19.48
2023-05-25T20:30:34.908Z,20.77
2023-05-25T20:33:03.012Z,19.90
2023-05-25T20:35:31.332Z,23.65
2023-05-25T20:37:59.254Z,18.90
2023-05-25T20:40:27.432Z,19.65
2023-05-25T20:42:57.435Z,20.50
2023-05-25T20:45:25.348Z,23.00
2023-05-25T20:48:00.673Z,21.88
2023-05-25T20:50:28.644Z,21.80
2023-05-25T20:52:56.722Z,21.70
2023-05-25T20:55:24.634Z,20.38
2023-05-25T20:57:52.527Z,21.83
2023-05-25T21:00:23.637Z,21.05
2023-05-25T21:02:51.578Z,20.58
2023-05-25T21:05:19.534Z,20.63
2023-05-25T21:07:47.420Z,21.02
